sensor_id;sensor_type;location;lat;lon;timestamp;P1;durP1;ratioP1;P2;durP2;ratioP2
76123;SDS011;65173;48.066;20.976;2023-12-20T00:00:41;13.52;;;6.00;;
76123;SDS011;65173;48.066;20.976;2023-12-20T00:03:43;7.65;;;4.28;;
76123;SDS011;65173;48.066;20.976;2023-12-20T00:06:45;9.93;;;4.43;;
76123;SDS011;65173;48.066;20.976;2023-12-20T00:09:47;12.00;;;5.80;;
76123;SDS011;65173;48.066;20.976;2023-12-20T00:12:50;19.73;;;3.73;;
76123;SDS011;65173;48.066;20.976;2023-12-20T00:15:52;4.85;;;2.80;;
76123;SDS011;65173;48.066;20.976;2023-12-20T00:18:55;8.50;;;3.83;;
76123;SDS011;65173;48.066;20.976;2023-12-20T00:21:57;12.87;;;4.73;;
76123;SDS011;65173;48.066;20.976;2023-12-20T00:25:01;12.50;;;4.10;;
76123;SDS011;65173;48.066;20.976;2023-12-20T00:28:03;16.35;;;5.38;;
76123;SDS011;65173;48.066;20.976;2023-12-20T00:31:06;9.60;;;4.00;;
76123;SDS011;65173;48.066;20.976;2023-12-20T00:34:08;12.40;;;3.45;;
76123;SDS011;65173;48.066;20.976;2023-12-20T00:37:10;14.07;;;5.55;;
76123;SDS011;65173;48.066;20.976;2023-12-20T00:40:13;9.90;;;4.07;;
76123;SDS011;65173;48.066;20.976;2023-12-20T00:43:15;7.97;;;3.60;;
76123;SDS011;65173;48.066;20.976;2023-12-20T00:46:17;10.77;;;3.40;;
76123;SDS011;65173;48.066;20.976;2023-12-20T00:49:19;10.10;;;3.05;;
76123;SDS011;65173;48.066;20.976;2023-12-20T00:52:22;3.90;;;2.60;;
76123;SDS011;65173;48.066;20.976;2023-12-20T00:55:24;5.38;;;2.45;;
76123;SDS011;65173;48.066;20.976;2023-12-20T00:58:27;7.55;;;3.05;;
76123;SDS011;65173;48.066;20.976;2023-12-20T01:01:30;12.32;;;4.25;;
76123;SDS011;65173;48.066;20.976;2023-12-20T01:04:32;8.95;;;4.03;;
76123;SDS011;65173;48.066;20.976;2023-12-20T01:07:35;5.80;;;2.75;;
76123;SDS011;65173;48.066;20.976;2023-12-20T01:10:37;12.07;;;3.63;;
76123;SDS011;65173;48.066;20.976;2023-12-20T01:13:39;5.00;;;1.83;;
76123;SDS011;65173;48.066;20.976;2023-12-20T01:16:41;7.22;;;2.92;;
76123;SDS011;65173;48.066;20.976;2023-12-20T01:19:43;6.25;;;3.88;;
76123;SDS011;65173;48.066;20.976;2023-12-20T01:22:45;8.67;;;4.33;;
76123;SDS011;65173;48.066;20.976;2023-12-20T01:25:48;8.43;;;3.17;;
76123;SDS011;65173;48.066;20.976;2023-12-20T01:28:50;3.97;;;2.00;;
76123;SDS011;65173;48.066;20.976;2023-12-20T01:31:52;13.15;;;5.22;;
76123;SDS011;65173;48.066;20.976;2023-12-20T01:34:54;5.30;;;3.10;;
76123;SDS011;65173;48.066;20.976;2023-12-20T01:38:02;6.88;;;2.20;;
76123;SDS011;65173;48.066;20.976;2023-12-20T01:41:04;4.90;;;2.33;;
76123;SDS011;65173;48.066;20.976;2023-12-20T01:44:07;8.00;;;2.70;;
76123;SDS011;65173;48.066;20.976;2023-12-20T01:47:09;8.73;;;4.28;;
76123;SDS011;65173;48.066;20.976;2023-12-20T01:50:11;9.38;;;3.63;;
76123;SDS011;65173;48.066;20.976;2023-12-20T01:53:13;4.83;;;2.93;;
76123;SDS011;65173;48.066;20.976;2023-12-20T01:56:16;6.40;;;4.43;;
76123;SDS011;65173;48.066;20.976;2023-12-20T01:59:18;7.07;;;2.83;;
76123;SDS011;65173;48.066;20.976;2023-12-20T02:02:22;9.68;;;4.15;;
76123;SDS011;65173;48.066;20.976;2023-12-20T02:05:24;7.45;;;2.88;;
76123;SDS011;65173;48.066;20.976;2023-12-20T02:08:27;6.35;;;2.80;;
76123;SDS011;65173;48.066;20.976;2023-12-20T02:11:29;8.43;;;3.90;;
76123;SDS011;65173;48.066;20.976;2023-12-20T02:14:32;14.37;;;4.60;;
76123;SDS011;65173;48.066;20.976;2023-12-20T02:17:34;16.30;;;4.68;;
76123;SDS011;65173;48.066;20.976;2023-12-20T02:20:36;8.30;;;2.38;;
76123;SDS011;65173;48.066;20.976;2023-12-20T02:23:38;9.47;;;3.70;;
76123;SDS011;65173;48.066;20.976;2023-12-20T02:26:40;13.63;;;3.88;;
76123;SDS011;65173;48.066;20.976;2023-12-20T02:29:47;10.00;;;3.53;;
76123;SDS011;65173;48.066;20.976;2023-12-20T02:32:50;3.13;;;2.88;;
76123;SDS011;65173;48.066;20.976;2023-12-20T02:35:53;5.20;;;3.33;;
76123;SDS011;65173;48.066;20.976;2023-12-20T02:38:55;12.68;;;4.82;;
76123;SDS011;65173;48.066;20.976;2023-12-20T02:41:57;4.90;;;1.98;;
76123;SDS011;65173;48.066;20.976;2023-12-20T02:44:59;11.07;;;3.63;;
76123;SDS011;65173;48.066;20.976;2023-12-20T02:48:01;7.40;;;3.45;;
76123;SDS011;65173;48.066;20.976;2023-12-20T02:51:04;8.02;;;3.15;;
76123;SDS011;65173;48.066;20.976;2023-12-20T02:54:06;4.50;;;2.00;;
76123;SDS011;65173;48.066;20.976;2023-12-20T02:57:08;6.30;;;3.08;;
76123;SDS011;65173;48.066;20.976;2023-12-20T03:00:10;8.77;;;3.28;;
76123;SDS011;65173;48.066;20.976;2023-12-20T03:03:12;11.70;;;4.63;;
76123;SDS011;65173;48.066;20.976;2023-12-20T03:06:18;10.43;;;4.93;;
76123;SDS011;65173;48.066;20.976;2023-12-20T03:09:20;5.57;;;3.15;;
76123;SDS011;65173;48.066;20.976;2023-12-20T03:12:22;10.73;;;3.10;;
76123;SDS011;65173;48.066;20.976;2023-12-20T03:15:25;7.70;;;4.33;;
76123;SDS011;65173;48.066;20.976;2023-12-20T03:18:27;9.25;;;4.20;;
76123;SDS011;65173;48.066;20.976;2023-12-20T03:21:30;7.38;;;3.88;;
76123;SDS011;65173;48.066;20.976;2023-12-20T03:24:32;7.30;;;2.77;;
76123;SDS011;65173;48.066;20.976;2023-12-20T03:27:36;9.25;;;3.03;;
76123;SDS011;65173;48.066;20.976;2023-12-20T03:30:38;7.38;;;3.58;;
76123;SDS011;65173;48.066;20.976;2023-12-20T03:33:41;11.15;;;4.00;;
76123;SDS011;65173;48.066;20.976;2023-12-20T03:36:43;9.38;;;4.25;;
76123;SDS011;65173;48.066;20.976;2023-12-20T03:39:46;12.75;;;4.05;;
76123;SDS011;65173;48.066;20.976;2023-12-20T03:42:48;9.02;;;4.20;;
76123;SDS011;65173;48.066;20.976;2023-12-20T03:45:50;14.40;;;4.17;;
76123;SDS011;65173;48.066;20.976;2023-12-20T03:48:52;8.45;;;3.75;;
76123;SDS011;65173;48.066;20.976;2023-12-20T03:51:54;11.55;;;3.22;;
76123;SDS011;65173;48.066;20.976;2023-12-20T03:54:56;12.33;;;2.87;;
76123;SDS011;65173;48.066;20.976;2023-12-20T03:57:59;11.40;;;4.07;;
76123;SDS011;65173;48.066;20.976;2023-12-20T04:01:01;10.80;;;2.72;;
76123;SDS011;65173;48.066;20.976;2023-12-20T04:04:04;8.10;;;2.70;;
76123;SDS011;65173;48.066;20.976;2023-12-20T04:07:06;9.95;;;3.15;;
76123;SDS011;65173;48.066;20.976;2023-12-20T04:10:09;11.73;;;4.32;;
76123;SDS011;65173;48.066;20.976;2023-12-20T04:13:11;6.78;;;3.08;;
76123;SDS011;65173;48.066;20.976;2023-12-20T04:16:13;9.60;;;3.73;;
76123;SDS011;65173;48.066;20.976;2023-12-20T04:19:16;9.15;;;4.38;;
76123;SDS011;65173;48.066;20.976;2023-12-20T04:22:18;9.98;;;3.20;;
76123;SDS011;65173;48.066;20.976;2023-12-20T04:25:21;11.77;;;3.87;;
76123;SDS011;65173;48.066;20.976;2023-12-20T04:28:23;7.93;;;4.40;;
76123;SDS011;65173;48.066;20.976;2023-12-20T04:31:26;9.15;;;3.88;;
76123;SDS011;65173;48.066;20.976;2023-12-20T04:34:28;8.15;;;3.03;;
76123;SDS011;65173;48.066;20.976;2023-12-20T04:37:31;9.95;;;5.22;;
76123;SDS011;65173;48.066;20.976;2023-12-20T04:40:33;10.15;;;3.97;;
76123;SDS011;65173;48.066;20.976;2023-12-20T04:43:35;9.07;;;3.20;;
76123;SDS011;65173;48.066;20.976;2023-12-20T04:46:38;14.10;;;4.60;;
76123;SDS011;65173;48.066;20.976;2023-12-20T04:49:40;13.85;;;5.60;;
76123;SDS011;65173;48.066;20.976;2023-12-20T04:52:42;10.93;;;4.30;;
76123;SDS011;65173;48.066;20.976;2023-12-20T04:55:44;10.27;;;4.77;;
76123;SDS011;65173;48.066;20.976;2023-12-20T04:58:47;10.13;;;4.68;;
76123;SDS011;65173;48.066;20.976;2023-12-20T05:01:50;9.32;;;4.05;;
76123;SDS011;65173;48.066;20.976;2023-12-20T05:04:54;10.27;;;2.22;;
76123;SDS011;65173;48.066;20.976;2023-12-20T05:07:57;8.77;;;3.95;;
76123;SDS011;65173;48.066;20.976;2023-12-20T05:10:59;4.00;;;3.05;;
76123;SDS011;65173;48.066;20.976;2023-12-20T05:14:02;8.38;;;4.47;;
76123;SDS011;65173;48.066;20.976;2023-12-20T05:17:04;13.23;;;4.50;;
76123;SDS011;65173;48.066;20.976;2023-12-20T05:20:06;11.65;;;4.50;;
76123;SDS011;65173;48.066;20.976;2023-12-20T05:23:09;7.78;;;5.55;;
76123;SDS011;65173;48.066;20.976;2023-12-20T05:26:11;7.77;;;3.57;;
76123;SDS011;65173;48.066;20.976;2023-12-20T05:29:13;10.70;;;2.78;;
76123;SDS011;65173;48.066;20.976;2023-12-20T05:32:16;11.73;;;3.45;;
76123;SDS011;65173;48.066;20.976;2023-12-20T05:35:18;10.15;;;3.53;;
76123;SDS011;65173;48.066;20.976;2023-12-20T05:38:21;8.50;;;3.50;;
76123;SDS011;65173;48.066;20.976;2023-12-20T05:41:23;5.97;;;3.25;;
76123;SDS011;65173;48.066;20.976;2023-12-20T05:44:26;10.52;;;3.85;;
76123;SDS011;65173;48.066;20.976;2023-12-20T05:47:28;5.03;;;2.60;;
76123;SDS011;65173;48.066;20.976;2023-12-20T05:50:30;8.02;;;2.90;;
76123;SDS011;65173;48.066;20.976;2023-12-20T05:53:33;7.47;;;3.78;;
76123;SDS011;65173;48.066;20.976;2023-12-20T05:56:35;6.53;;;3.23;;
76123;SDS011;65173;48.066;20.976;2023-12-20T05:59:37;8.75;;;3.95;;
76123;SDS011;65173;48.066;20.976;2023-12-20T06:02:39;7.93;;;3.33;;
76123;SDS011;65173;48.066;20.976;2023-12-20T06:05:41;7.88;;;3.58;;
76123;SDS011;65173;48.066;20.976;2023-12-20T06:08:44;9.32;;;3.22;;
76123;SDS011;65173;48.066;20.976;2023-12-20T06:11:46;10.07;;;4.85;;
76123;SDS011;65173;48.066;20.976;2023-12-20T06:14:49;7.53;;;4.50;;
76123;SDS011;65173;48.066;20.976;2023-12-20T06:17:51;4.40;;;2.63;;
76123;SDS011;65173;48.066;20.976;2023-12-20T06:20:54;5.45;;;2.78;;
76123;SDS011;65173;48.066;20.976;2023-12-20T06:23:58;8.52;;;4.63;;
76123;SDS011;65173;48.066;20.976;2023-12-20T06:27:00;4.97;;;2.60;;
76123;SDS011;65173;48.066;20.976;2023-12-20T06:30:03;9.70;;;3.55;;
76123;SDS011;65173;48.066;20.976;2023-12-20T06:33:08;5.00;;;2.75;;
76123;SDS011;65173;48.066;20.976;2023-12-20T06:36:12;7.38;;;3.25;;
76123;SDS011;65173;48.066;20.976;2023-12-20T06:39:18;4.70;;;2.85;;
76123;SDS011;65173;48.066;20.976;2023-12-20T06:42:20;12.10;;;4.05;;
76123;SDS011;65173;48.066;20.976;2023-12-20T06:45:22;7.40;;;5.65;;
76123;SDS011;65173;48.066;20.976;2023-12-20T06:48:25;5.50;;;4.07;;
76123;SDS011;65173;48.066;20.976;2023-12-20T06:51:27;4.72;;;2.95;;
76123;SDS011;65173;48.066;20.976;2023-12-20T06:54:30;9.30;;;2.60;;
76123;SDS011;65173;48.066;20.976;2023-12-20T06:57:32;5.17;;;3.03;;
76123;SDS011;65173;48.066;20.976;2023-12-20T07:00:34;10.00;;;2.80;;
76123;SDS011;65173;48.066;20.976;2023-12-20T07:03:37;6.50;;;3.55;;
76123;SDS011;65173;48.066;20.976;2023-12-20T07:06:39;14.35;;;3.88;;
76123;SDS011;65173;48.066;20.976;2023-12-20T07:09:42;14.00;;;4.32;;
76123;SDS011;65173;48.066;20.976;2023-12-20T07:12:45;14.23;;;4.63;;
76123;SDS011;65173;48.066;20.976;2023-12-20T07:15:47;10.35;;;3.92;;
76123;SDS011;65173;48.066;20.976;2023-12-20T07:18:50;16.10;;;4.77;;
76123;SDS011;65173;48.066;20.976;2023-12-20T07:21:52;8.68;;;3.53;;
76123;SDS011;65173;48.066;20.976;2023-12-20T07:24:55;10.77;;;4.63;;
76123;SDS011;65173;48.066;20.976;2023-12-20T07:27:58;8.20;;;3.53;;
76123;SDS011;65173;48.066;20.976;2023-12-20T07:31:00;13.23;;;3.55;;
76123;SDS011;65173;48.066;20.976;2023-12-20T07:34:03;8.95;;;1.80;;
76123;SDS011;65173;48.066;20.976;2023-12-20T07:37:06;11.43;;;3.60;;
76123;SDS011;65173;48.066;20.976;2023-12-20T07:40:08;10.18;;;4.45;;
76123;SDS011;65173;48.066;20.976;2023-12-20T07:43:11;10.75;;;4.80;;
76123;SDS011;65173;48.066;20.976;2023-12-20T07:46:13;4.40;;;3.58;;
76123;SDS011;65173;48.066;20.976;2023-12-20T07:49:16;9.97;;;5.23;;
76123;SDS011;65173;48.066;20.976;2023-12-20T07:52:18;8.00;;;4.50;;
76123;SDS011;65173;48.066;20.976;2023-12-20T07:55:21;7.93;;;5.05;;
76123;SDS011;65173;48.066;20.976;2023-12-20T07:58:23;9.63;;;4.83;;
76123;SDS011;65173;48.066;20.976;2023-12-20T08:01:42;10.55;;;5.90;;
76123;SDS011;65173;48.066;20.976;2023-12-20T08:04:44;10.70;;;4.25;;
76123;SDS011;65173;48.066;20.976;2023-12-20T08:07:47;9.18;;;4.43;;
76123;SDS011;65173;48.066;20.976;2023-12-20T08:10:50;9.90;;;5.35;;
76123;SDS011;65173;48.066;20.976;2023-12-20T08:13:52;14.73;;;6.00;;
76123;SDS011;65173;48.066;20.976;2023-12-20T08:16:54;21.58;;;5.97;;
76123;SDS011;65173;48.066;20.976;2023-12-20T08:19:57;9.37;;;5.63;;
76123;SDS011;65173;48.066;20.976;2023-12-20T08:22:59;21.80;;;8.13;;
76123;SDS011;65173;48.066;20.976;2023-12-20T08:26:06;47.63;;;12.07;;
76123;SDS011;65173;48.066;20.976;2023-12-20T08:29:08;31.90;;;10.37;;
76123;SDS011;65173;48.066;20.976;2023-12-20T08:32:11;24.65;;;9.25;;
76123;SDS011;65173;48.066;20.976;2023-12-20T08:35:13;23.75;;;8.73;;
76123;SDS011;65173;48.066;20.976;2023-12-20T08:38:16;43.53;;;16.13;;
76123;SDS011;65173;48.066;20.976;2023-12-20T08:41:19;20.92;;;10.63;;
76123;SDS011;65173;48.066;20.976;2023-12-20T08:44:22;17.25;;;7.82;;
76123;SDS011;65173;48.066;20.976;2023-12-20T08:47:25;16.35;;;6.80;;
76123;SDS011;65173;48.066;20.976;2023-12-20T08:50:27;18.17;;;7.03;;
76123;SDS011;65173;48.066;20.976;2023-12-20T08:53:30;11.57;;;5.45;;
76123;SDS011;65173;48.066;20.976;2023-12-20T08:56:33;15.98;;;8.15;;
76123;SDS011;65173;48.066;20.976;2023-12-20T08:59:35;27.13;;;12.97;;
76123;SDS011;65173;48.066;20.976;2023-12-20T09:02:38;19.50;;;9.43;;
76123;SDS011;65173;48.066;20.976;2023-12-20T09:05:41;25.65;;;9.48;;
76123;SDS011;65173;48.066;20.976;2023-12-20T09:08:43;71.82;;;30.85;;
76123;SDS011;65173;48.066;20.976;2023-12-20T09:11:45;66.18;;;24.67;;
76123;SDS011;65173;48.066;20.976;2023-12-20T09:14:50;29.67;;;15.30;;
76123;SDS011;65173;48.066;20.976;2023-12-20T09:17:53;26.52;;;12.00;;
76123;SDS011;65173;48.066;20.976;2023-12-20T09:20:56;24.33;;;11.13;;
76123;SDS011;65173;48.066;20.976;2023-12-20T09:23:58;18.58;;;8.40;;
76123;SDS011;65173;48.066;20.976;2023-12-20T09:27:01;22.10;;;9.98;;
76123;SDS011;65173;48.066;20.976;2023-12-20T09:30:03;16.43;;;7.30;;
76123;SDS011;65173;48.066;20.976;2023-12-20T09:33:07;16.13;;;5.97;;
76123;SDS011;65173;48.066;20.976;2023-12-20T09:36:10;11.27;;;6.28;;
76123;SDS011;65173;48.066;20.976;2023-12-20T09:39:16;25.42;;;9.13;;
76123;SDS011;65173;48.066;20.976;2023-12-20T09:42:24;14.65;;;5.10;;
76123;SDS011;65173;48.066;20.976;2023-12-20T09:45:27;21.52;;;8.13;;
76123;SDS011;65173;48.066;20.976;2023-12-20T09:48:29;27.13;;;9.15;;
76123;SDS011;65173;48.066;20.976;2023-12-20T09:51:32;22.03;;;7.37;;
76123;SDS011;65173;48.066;20.976;2023-12-20T09:54:35;14.02;;;5.38;;
76123;SDS011;65173;48.066;20.976;2023-12-20T09:57:38;15.82;;;6.68;;
76123;SDS011;65173;48.066;20.976;2023-12-20T10:00:41;11.03;;;5.63;;
76123;SDS011;65173;48.066;20.976;2023-12-20T10:03:44;17.13;;;6.35;;
76123;SDS011;65173;48.066;20.976;2023-12-20T10:06:46;22.92;;;8.27;;
76123;SDS011;65173;48.066;20.976;2023-12-20T10:09:49;18.58;;;7.57;;
76123;SDS011;65173;48.066;20.976;2023-12-20T10:13:02;16.70;;;8.60;;
76123;SDS011;65173;48.066;20.976;2023-12-20T10:16:05;22.23;;;6.20;;
76123;SDS011;65173;48.066;20.976;2023-12-20T10:19:08;18.02;;;6.90;;
76123;SDS011;65173;48.066;20.976;2023-12-20T10:22:10;19.17;;;8.07;;
76123;SDS011;65173;48.066;20.976;2023-12-20T10:25:12;17.48;;;7.07;;
76123;SDS011;65173;48.066;20.976;2023-12-20T10:28:15;19.00;;;7.40;;
76123;SDS011;65173;48.066;20.976;2023-12-20T10:31:28;34.97;;;7.73;;
76123;SDS011;65173;48.066;20.976;2023-12-20T10:34:32;21.17;;;7.53;;
76123;SDS011;65173;48.066;20.976;2023-12-20T10:37:35;17.25;;;9.23;;
76123;SDS011;65173;48.066;20.976;2023-12-20T10:40:38;13.48;;;7.05;;
76123;SDS011;65173;48.066;20.976;2023-12-20T10:43:41;18.60;;;10.23;;
76123;SDS011;65173;48.066;20.976;2023-12-20T10:46:44;25.20;;;6.32;;
76123;SDS011;65173;48.066;20.976;2023-12-20T10:49:52;21.95;;;7.57;;
76123;SDS011;65173;48.066;20.976;2023-12-20T10:52:55;19.80;;;7.57;;
76123;SDS011;65173;48.066;20.976;2023-12-20T10:55:58;16.63;;;6.53;;
76123;SDS011;65173;48.066;20.976;2023-12-20T10:59:02;19.42;;;7.78;;
76123;SDS011;65173;48.066;20.976;2023-12-20T11:02:07;14.77;;;6.20;;
76123;SDS011;65173;48.066;20.976;2023-12-20T11:08:17;19.75;;;6.80;;
76123;SDS011;65173;48.066;20.976;2023-12-20T11:14:27;24.98;;;7.70;;
76123;SDS011;65173;48.066;20.976;2023-12-20T11:17:31;21.77;;;7.00;;
76123;SDS011;65173;48.066;20.976;2023-12-20T11:20:37;17.23;;;6.88;;
76123;SDS011;65173;48.066;20.976;2023-12-20T11:23:40;14.87;;;6.23;;
76123;SDS011;65173;48.066;20.976;2023-12-20T11:26:47;19.10;;;9.15;;
76123;SDS011;65173;48.066;20.976;2023-12-20T11:29:54;16.63;;;6.78;;
76123;SDS011;65173;48.066;20.976;2023-12-20T11:32:56;21.43;;;6.87;;
76123;SDS011;65173;48.066;20.976;2023-12-20T11:35:59;26.63;;;7.25;;
76123;SDS011;65173;48.066;20.976;2023-12-20T11:39:05;30.85;;;7.97;;
76123;SDS011;65173;48.066;20.976;2023-12-20T11:42:13;24.13;;;8.50;;
76123;SDS011;65173;48.066;20.976;2023-12-20T11:45:18;15.13;;;9.38;;
76123;SDS011;65173;48.066;20.976;2023-12-20T11:48:24;19.70;;;6.18;;
76123;SDS011;65173;48.066;20.976;2023-12-20T11:51:27;18.98;;;9.73;;
76123;SDS011;65173;48.066;20.976;2023-12-20T11:54:30;9.17;;;4.00;;
76123;SDS011;65173;48.066;20.976;2023-12-20T11:57:33;14.85;;;5.97;;
76123;SDS011;65173;48.066;20.976;2023-12-20T12:00:35;20.38;;;10.80;;
76123;SDS011;65173;48.066;20.976;2023-12-20T12:03:37;8.73;;;3.00;;
76123;SDS011;65173;48.066;20.976;2023-12-20T12:06:40;9.32;;;5.30;;
76123;SDS011;65173;48.066;20.976;2023-12-20T12:09:42;12.60;;;6.15;;
76123;SDS011;65173;48.066;20.976;2023-12-20T12:12:45;13.02;;;4.60;;
76123;SDS011;65173;48.066;20.976;2023-12-20T12:15:48;6.13;;;3.95;;
76123;SDS011;65173;48.066;20.976;2023-12-20T12:18:57;5.35;;;3.05;;
76123;SDS011;65173;48.066;20.976;2023-12-20T12:25:17;10.30;;;4.00;;
76123;SDS011;65173;48.066;20.976;2023-12-20T12:28:19;6.25;;;4.60;;
76123;SDS011;65173;48.066;20.976;2023-12-20T12:31:22;6.38;;;2.90;;
76123;SDS011;65173;48.066;20.976;2023-12-20T12:34:28;6.50;;;3.33;;
76123;SDS011;65173;48.066;20.976;2023-12-20T12:37:33;10.77;;;5.32;;
76123;SDS011;65173;48.066;20.976;2023-12-20T12:40:35;5.45;;;3.75;;
76123;SDS011;65173;48.066;20.976;2023-12-20T12:43:38;8.45;;;3.78;;
76123;SDS011;65173;48.066;20.976;2023-12-20T12:46:41;7.35;;;5.10;;
76123;SDS011;65173;48.066;20.976;2023-12-20T12:49:43;15.10;;;8.07;;
76123;SDS011;65173;48.066;20.976;2023-12-20T12:52:46;13.43;;;7.18;;
76123;SDS011;65173;48.066;20.976;2023-12-20T12:55:49;15.77;;;6.80;;
76123;SDS011;65173;48.066;20.976;2023-12-20T12:58:51;12.98;;;4.90;;
76123;SDS011;65173;48.066;20.976;2023-12-20T13:01:53;15.85;;;4.90;;
76123;SDS011;65173;48.066;20.976;2023-12-20T13:04:55;6.43;;;4.57;;
76123;SDS011;65173;48.066;20.976;2023-12-20T13:07:58;21.10;;;8.63;;
76123;SDS011;65173;48.066;20.976;2023-12-20T13:11:00;12.27;;;5.60;;
76123;SDS011;65173;48.066;20.976;2023-12-20T13:14:06;25.88;;;8.00;;
76123;SDS011;65173;48.066;20.976;2023-12-20T13:17:09;24.42;;;8.77;;
76123;SDS011;65173;48.066;20.976;2023-12-20T13:20:11;27.55;;;9.65;;
76123;SDS011;65173;48.066;20.976;2023-12-20T13:23:13;17.55;;;7.05;;
76123;SDS011;65173;48.066;20.976;2023-12-20T13:26:16;15.50;;;6.97;;
76123;SDS011;65173;48.066;20.976;2023-12-20T13:29:18;16.17;;;4.53;;
76123;SDS011;65173;48.066;20.976;2023-12-20T13:32:22;13.45;;;4.93;;
76123;SDS011;65173;48.066;20.976;2023-12-20T13:35:24;22.90;;;7.87;;
76123;SDS011;65173;48.066;20.976;2023-12-20T13:38:27;29.38;;;8.00;;
76123;SDS011;65173;48.066;20.976;2023-12-20T13:41:29;22.80;;;7.78;;
76123;SDS011;65173;48.066;20.976;2023-12-20T13:44:32;15.25;;;7.65;;
76123;SDS011;65173;48.066;20.976;2023-12-20T13:47:34;18.55;;;7.85;;
76123;SDS011;65173;48.066;20.976;2023-12-20T13:50:37;17.50;;;7.25;;
76123;SDS011;65173;48.066;20.976;2023-12-20T13:53:39;16.38;;;8.25;;
76123;SDS011;65173;48.066;20.976;2023-12-20T13:56:41;23.57;;;9.40;;
76123;SDS011;65173;48.066;20.976;2023-12-20T13:59:58;17.20;;;7.32;;
76123;SDS011;65173;48.066;20.976;2023-12-20T14:03:00;15.95;;;6.90;;
76123;SDS011;65173;48.066;20.976;2023-12-20T14:06:03;20.83;;;7.77;;
76123;SDS011;65173;48.066;20.976;2023-12-20T14:09:06;22.17;;;8.43;;
76123;SDS011;65173;48.066;20.976;2023-12-20T14:12:08;25.45;;;7.47;;
76123;SDS011;65173;48.066;20.976;2023-12-20T14:15:12;23.08;;;10.98;;
76123;SDS011;65173;48.066;20.976;2023-12-20T14:18:15;24.38;;;10.77;;
76123;SDS011;65173;48.066;20.976;2023-12-20T14:21:19;22.35;;;9.13;;
76123;SDS011;65173;48.066;20.976;2023-12-20T14:24:21;21.13;;;8.45;;
76123;SDS011;65173;48.066;20.976;2023-12-20T14:27:24;15.37;;;7.00;;
76123;SDS011;65173;48.066;20.976;2023-12-20T14:30:29;18.65;;;9.30;;
76123;SDS011;65173;48.066;20.976;2023-12-20T14:33:32;17.20;;;7.50;;
76123;SDS011;65173;48.066;20.976;2023-12-20T14:36:34;36.00;;;13.13;;
76123;SDS011;65173;48.066;20.976;2023-12-20T14:39:37;21.08;;;8.63;;
76123;SDS011;65173;48.066;20.976;2023-12-20T14:42:43;29.50;;;10.68;;
76123;SDS011;65173;48.066;20.976;2023-12-20T14:45:46;18.88;;;7.20;;
76123;SDS011;65173;48.066;20.976;2023-12-20T14:48:48;22.30;;;9.95;;
76123;SDS011;65173;48.066;20.976;2023-12-20T14:51:51;20.92;;;8.02;;
76123;SDS011;65173;48.066;20.976;2023-12-20T14:54:53;26.75;;;8.70;;
76123;SDS011;65173;48.066;20.976;2023-12-20T14:57:56;14.83;;;6.83;;
76123;SDS011;65173;48.066;20.976;2023-12-20T15:00:58;17.08;;;7.38;;
76123;SDS011;65173;48.066;20.976;2023-12-20T15:04:01;23.02;;;9.00;;
76123;SDS011;65173;48.066;20.976;2023-12-20T15:07:03;19.40;;;7.27;;
76123;SDS011;65173;48.066;20.976;2023-12-20T15:10:08;26.50;;;7.00;;
76123;SDS011;65173;48.066;20.976;2023-12-20T15:13:10;27.70;;;7.53;;
76123;SDS011;65173;48.066;20.976;2023-12-20T15:16:14;21.02;;;7.43;;
76123;SDS011;65173;48.066;20.976;2023-12-20T15:19:16;20.60;;;7.65;;
76123;SDS011;65173;48.066;20.976;2023-12-20T15:22:19;14.45;;;6.50;;
76123;SDS011;65173;48.066;20.976;2023-12-20T15:25:21;14.07;;;5.03;;
76123;SDS011;65173;48.066;20.976;2023-12-20T15:28:24;19.63;;;7.00;;
76123;SDS011;65173;48.066;20.976;2023-12-20T15:31:27;55.47;;;16.38;;
76123;SDS011;65173;48.066;20.976;2023-12-20T15:34:29;41.92;;;14.35;;
76123;SDS011;65173;48.066;20.976;2023-12-20T15:37:31;27.00;;;8.93;;
76123;SDS011;65173;48.066;20.976;2023-12-20T15:40:34;21.10;;;8.43;;
76123;SDS011;65173;48.066;20.976;2023-12-20T15:43:37;21.42;;;10.55;;
76123;SDS011;65173;48.066;20.976;2023-12-20T15:46:39;17.38;;;8.00;;
76123;SDS011;65173;48.066;20.976;2023-12-20T15:49:41;12.80;;;7.95;;
76123;SDS011;65173;48.066;20.976;2023-12-20T15:52:44;26.73;;;10.38;;
76123;SDS011;65173;48.066;20.976;2023-12-20T15:55:46;23.90;;;8.35;;
76123;SDS011;65173;48.066;20.976;2023-12-20T15:58:48;18.47;;;7.97;;
76123;SDS011;65173;48.066;20.976;2023-12-20T16:01:51;32.42;;;9.32;;
76123;SDS011;65173;48.066;20.976;2023-12-20T16:04:55;22.73;;;8.20;;
76123;SDS011;65173;48.066;20.976;2023-12-20T16:07:58;22.77;;;9.27;;
76123;SDS011;65173;48.066;20.976;2023-12-20T16:11:00;19.88;;;7.80;;
76123;SDS011;65173;48.066;20.976;2023-12-20T16:14:02;21.20;;;7.28;;
76123;SDS011;65173;48.066;20.976;2023-12-20T16:17:04;28.75;;;8.52;;
76123;SDS011;65173;48.066;20.976;2023-12-20T16:20:07;16.27;;;6.18;;
76123;SDS011;65173;48.066;20.976;2023-12-20T16:23:10;22.63;;;6.60;;
76123;SDS011;65173;48.066;20.976;2023-12-20T16:26:13;22.27;;;8.18;;
76123;SDS011;65173;48.066;20.976;2023-12-20T16:29:15;19.87;;;7.07;;
76123;SDS011;65173;48.066;20.976;2023-12-20T16:32:17;21.23;;;9.30;;
76123;SDS011;65173;48.066;20.976;2023-12-20T16:35:20;28.42;;;11.20;;
76123;SDS011;65173;48.066;20.976;2023-12-20T16:38:22;34.90;;;16.57;;
76123;SDS011;65173;48.066;20.976;2023-12-20T16:41:24;31.67;;;10.07;;
76123;SDS011;65173;48.066;20.976;2023-12-20T16:44:26;40.55;;;13.65;;
76123;SDS011;65173;48.066;20.976;2023-12-20T16:47:29;24.25;;;10.85;;
76123;SDS011;65173;48.066;20.976;2023-12-20T16:50:31;47.10;;;20.95;;
76123;SDS011;65173;48.066;20.976;2023-12-20T16:53:33;30.30;;;11.35;;
76123;SDS011;65173;48.066;20.976;2023-12-20T16:56:35;40.28;;;15.82;;
76123;SDS011;65173;48.066;20.976;2023-12-20T16:59:41;29.50;;;11.27;;
76123;SDS011;65173;48.066;20.976;2023-12-20T17:02:44;23.83;;;9.75;;
76123;SDS011;65173;48.066;20.976;2023-12-20T17:05:46;45.00;;;13.60;;
76123;SDS011;65173;48.066;20.976;2023-12-20T17:08:49;31.43;;;15.23;;
76123;SDS011;65173;48.066;20.976;2023-12-20T17:11:52;34.72;;;11.60;;
76123;SDS011;65173;48.066;20.976;2023-12-20T17:14:54;38.20;;;10.95;;
76123;SDS011;65173;48.066;20.976;2023-12-20T17:17:57;24.52;;;9.85;;
76123;SDS011;65173;48.066;20.976;2023-12-20T17:20:59;23.42;;;9.02;;
76123;SDS011;65173;48.066;20.976;2023-12-20T17:24:02;25.98;;;10.27;;
76123;SDS011;65173;48.066;20.976;2023-12-20T17:27:04;33.08;;;9.02;;
76123;SDS011;65173;48.066;20.976;2023-12-20T17:30:07;23.43;;;7.37;;
76123;SDS011;65173;48.066;20.976;2023-12-20T17:33:09;30.42;;;9.10;;
76123;SDS011;65173;48.066;20.976;2023-12-20T17:36:11;22.48;;;7.70;;
76123;SDS011;65173;48.066;20.976;2023-12-20T17:39:16;40.70;;;10.87;;
76123;SDS011;65173;48.066;20.976;2023-12-20T17:42:18;22.55;;;7.63;;
76123;SDS011;65173;48.066;20.976;2023-12-20T17:45:21;28.20;;;9.95;;
76123;SDS011;65173;48.066;20.976;2023-12-20T17:48:24;31.75;;;8.65;;
76123;SDS011;65173;48.066;20.976;2023-12-20T17:51:26;9.27;;;4.82;;
76123;SDS011;65173;48.066;20.976;2023-12-20T17:54:28;23.00;;;9.10;;
76123;SDS011;65173;48.066;20.976;2023-12-20T17:57:32;30.17;;;10.35;;
76123;SDS011;65173;48.066;20.976;2023-12-20T18:00:34;23.13;;;9.07;;